createdAt,value
2019-03-21T00:01:26.462Z,24.17
2019-03-21T00:03:56.721Z,25.03
2019-03-21T00:06:23.423Z,21.53
2019-03-21T00:08:50.243Z,21.73
2019-03-21T00:11:54.788Z,21.43
2019-03-21T00:14:25.350Z,21.47
2019-03-21T00:16:52.125Z,21.83
2019-03-21T00:19:19.899Z,21.60
2019-03-21T00:21:46.723Z,22.37
2019-03-21T00:24:13.449Z,22.80
2019-03-21T00:26:40.042Z,22.83
2019-03-21T00:29:07.237Z,22.37
2019-03-21T00:31:34.002Z,21.07
2019-03-21T00:34:00.736Z,22.60
2019-03-21T00:36:27.481Z,26.47
2019-03-21T00:38:54.313Z,21.57
2019-03-21T00:41:21.151Z,21.63
2019-03-21T00:43:47.760Z,24.27
2019-03-21T00:46:14.531Z,20.90
2019-03-21T00:48:41.382Z,21.37
2019-03-21T00:51:08.021Z,22.63
2019-03-21T00:53:34.646Z,24.53
2019-03-21T00:56:01.266Z,31.17
2019-03-21T00:58:28.134Z,27.17
2019-03-21T01:01:03.682Z,23.53
2019-03-21T01:03:30.296Z,24.80
2019-03-21T01:05:56.936Z,26.13
2019-03-21T01:08:23.569Z,25.63
2019-03-21T01:10:51.010Z,24.13
2019-03-21T01:13:17.745Z,24.40
2019-03-21T01:15:44.375Z,24.70
2019-03-21T01:18:11.098Z,24.50
2019-03-21T01:20:37.954Z,25.57
2019-03-21T01:23:04.583Z,24.70
2019-03-21T01:25:34.798Z,24.43
2019-03-21T01:28:01.449Z,26.10
2019-03-21T01:30:28.152Z,26.77
2019-03-21T01:32:54.848Z,26.47
2019-03-21T01:35:22.592Z,25.13
2019-03-21T01:37:49.305Z,23.93
2019-03-21T01:40:31.792Z,25.37
2019-03-21T01:42:58.414Z,26.37
2019-03-21T01:45:25.568Z,25.50
2019-03-21T01:47:55.005Z,32.87
2019-03-21T01:50:23.819Z,32.73
2019-03-21T01:52:50.652Z,30.23
2019-03-21T01:55:17.350Z,30.23
2019-03-21T01:57:43.957Z,29.97
2019-03-21T02:00:14.162Z,27.80
2019-03-21T02:02:40.919Z,28.50
2019-03-21T02:05:09.441Z,30.90
2019-03-21T02:07:36.155Z,35.47
2019-03-21T02:10:06.608Z,32.60
2019-03-21T02:12:33.340Z,37.47
2019-03-21T02:15:00.063Z,29.33
2019-03-21T02:17:26.923Z,31.37
2019-03-21T02:19:53.682Z,27.77
2019-03-21T02:22:20.248Z,31.00
2019-03-21T02:24:47.932Z,28.70
2019-03-21T02:27:14.556Z,28.00
2019-03-21T02:29:41.126Z,29.37
2019-03-21T02:32:08.191Z,29.97
2019-03-21T02:34:34.890Z,28.83
2019-03-21T02:37:01.515Z,29.23
2019-03-21T02:39:28.148Z,29.83
2019-03-21T02:41:54.937Z,28.07
2019-03-21T02:44:21.656Z,30.50
2019-03-21T02:46:48.327Z,29.73
2019-03-21T02:49:15.061Z,29.57
2019-03-21T02:51:41.998Z,30.00
2019-03-21T02:54:08.704Z,31.13
2019-03-21T02:56:35.399Z,30.37
2019-03-21T02:59:02.018Z,29.47
2019-03-21T03:01:28.654Z,30.47
2019-03-21T03:03:55.413Z,28.50
2019-03-21T03:06:22.183Z,30.10
2019-03-21T03:08:49.063Z,32.00
2019-03-21T03:11:19.076Z,32.17
2019-03-21T03:13:47.983Z,30.77
2019-03-21T03:16:14.891Z,28.83
2019-03-21T03:18:42.747Z,28.57
2019-03-21T03:21:09.677Z,30.00
2019-03-21T03:23:36.411Z,33.07
2019-03-21T03:26:03.262Z,35.70
2019-03-21T03:28:36.393Z,30.03
2019-03-21T03:31:03.277Z,29.97
2019-03-21T03:33:30.082Z,30.37
2019-03-21T03:35:56.944Z,30.77
2019-03-21T03:38:23.726Z,31.60
2019-03-21T03:41:02.219Z,30.57
2019-03-21T03:43:28.999Z,30.43
2019-03-21T03:45:55.595Z,29.87
2019-03-21T03:48:22.216Z,32.13
2019-03-21T03:50:48.816Z,29.50
2019-03-21T03:53:15.660Z,29.27
2019-03-21T03:55:42.479Z,28.60
2019-03-21T03:58:12.583Z,28.33
2019-03-21T04:00:39.339Z,31.10
2019-03-21T04:03:06.125Z,33.17
2019-03-21T04:05:32.843Z,31.37
2019-03-21T04:07:59.695Z,31.57
2019-03-21T04:10:37.487Z,31.83
2019-03-21T04:13:04.317Z,34.03
2019-03-21T04:15:30.928Z,34.43
2019-03-21T04:17:57.589Z,32.73
2019-03-21T04:20:48.541Z,31.47
2019-03-21T04:23:21.586Z,32.57
2019-03-21T04:26:00.175Z,32.17
2019-03-21T04:28:26.841Z,31.43
2019-03-21T04:30:53.666Z,31.47
2019-03-21T04:33:22.653Z,31.93
2019-03-21T04:35:48.907Z,32.17
2019-03-21T04:38:16.041Z,31.40
2019-03-21T04:40:42.742Z,31.47
2019-03-21T04:43:09.338Z,31.47
2019-03-21T04:45:35.976Z,31.33
2019-03-21T04:48:04.015Z,33.67
2019-03-21T04:50:38.744Z,32.73
2019-03-21T04:53:05.583Z,32.87
2019-03-21T04:55:32.217Z,33.90
2019-03-21T04:57:58.846Z,31.10
2019-03-21T05:00:44.307Z,33.33
2019-03-21T05:03:18.699Z,31.53
2019-03-21T05:05:45.575Z,34.70
2019-03-21T05:08:12.275Z,36.87
2019-03-21T05:10:39.000Z,36.60
2019-03-21T05:13:05.734Z,36.73
2019-03-21T05:15:41.103Z,36.00
2019-03-21T05:18:14.004Z,34.87
2019-03-21T05:20:40.784Z,35.73
2019-03-21T05:23:07.404Z,37.17
2019-03-21T05:25:34.014Z,36.53
2019-03-21T05:28:01.160Z,37.10
2019-03-21T05:30:44.010Z,39.13
2019-03-21T05:33:11.102Z,38.43
2019-03-21T05:35:37.739Z,39.10
2019-03-21T05:38:04.631Z,36.60
2019-03-21T05:40:31.464Z,36.30
2019-03-21T05:43:01.782Z,36.87
2019-03-21T05:45:29.597Z,35.97
2019-03-21T05:47:56.256Z,37.93
2019-03-21T05:50:22.859Z,36.53
2019-03-21T05:52:49.509Z,37.33
2019-03-21T05:55:16.258Z,38.70
2019-03-21T05:57:43.037Z,42.20
2019-03-21T06:00:31.583Z,35.07
2019-03-21T06:02:58.224Z,35.77
2019-03-21T06:05:26.088Z,39.50
2019-03-21T06:07:56.501Z,38.47
2019-03-21T06:10:25.025Z,38.93
2019-03-21T06:12:51.625Z,39.07
2019-03-21T06:15:27.896Z,39.03
2019-03-21T06:18:19.668Z,39.50
2019-03-21T06:20:52.867Z,38.53
2019-03-21T06:23:32.159Z,42.50
2019-03-21T06:26:06.793Z,43.43
2019-03-21T06:28:33.484Z,49.37
2019-03-21T06:31:00.394Z,41.47
2019-03-21T06:33:27.145Z,43.00
2019-03-21T06:35:53.818Z,42.73
2019-03-21T06:38:20.459Z,43.40
2019-03-21T06:40:47.553Z,41.87
2019-03-21T06:43:14.224Z,40.60
2019-03-21T06:45:47.886Z,44.87
2019-03-21T06:48:09.415Z,42.80
2019-03-21T06:50:36.264Z,44.83
2019-03-21T06:53:03.436Z,43.70
2019-03-21T06:55:30.185Z,46.57
2019-03-21T06:57:56.721Z,45.07
2019-03-21T07:00:25.048Z,45.97
2019-03-21T07:02:51.969Z,42.50
2019-03-21T07:05:20.473Z,47.13
2019-03-21T07:07:47.162Z,47.73
2019-03-21T07:10:13.897Z,44.80
2019-03-21T07:12:41.631Z,48.30
2019-03-21T07:15:09.839Z,46.13
2019-03-21T07:17:36.613Z,46.80
2019-03-21T07:20:05.845Z,46.30
2019-03-21T07:22:32.563Z,48.80
2019-03-21T07:24:59.554Z,43.40
2019-03-21T07:27:26.181Z,47.57
2019-03-21T07:29:52.792Z,44.97
2019-03-21T07:32:19.416Z,44.40
2019-03-21T07:34:48.007Z,45.60
2019-03-21T07:37:15.029Z,45.53
2019-03-21T07:39:41.695Z,48.80
2019-03-21T07:42:08.329Z,44.23
2019-03-21T07:44:34.925Z,50.27
2019-03-21T07:47:12.291Z,44.40
2019-03-21T07:49:32.671Z,45.33
2019-03-21T07:51:58.777Z,46.10
2019-03-21T07:54:26.664Z,46.40
2019-03-21T07:56:53.425Z,49.37
2019-03-21T07:59:20.125Z,43.13
2019-03-21T08:01:46.734Z,44.87
2019-03-21T08:04:13.542Z,46.77
2019-03-21T08:06:40.161Z,45.70
2019-03-21T08:09:06.867Z,46.63
2019-03-21T08:11:33.618Z,45.03
2019-03-21T08:14:00.241Z,43.27
2019-03-21T08:16:26.874Z,44.00
2019-03-21T08:18:53.646Z,42.50
2019-03-21T08:21:20.185Z,45.33
2019-03-21T08:23:46.802Z,42.90
2019-03-21T08:26:13.439Z,38.13
2019-03-21T08:28:40.188Z,35.67
2019-03-21T08:31:10.731Z,31.97
2019-03-21T08:33:37.422Z,32.73
2019-03-21T08:36:04.162Z,33.80
2019-03-21T08:38:30.797Z,27.93
2019-03-21T08:40:57.602Z,30.43
2019-03-21T08:43:24.514Z,28.20
2019-03-21T08:45:51.131Z,27.57
2019-03-21T08:48:17.731Z,25.73
2019-03-21T08:50:44.353Z,25.73
2019-03-21T08:53:11.376Z,27.50
2019-03-21T08:55:38.111Z,26.60
2019-03-21T08:58:04.715Z,31.30
2019-03-21T09:00:34.394Z,25.63
2019-03-21T09:03:01.141Z,25.10
2019-03-21T09:05:27.745Z,24.00
2019-03-21T09:07:54.282Z,23.70
2019-03-21T09:10:21.190Z,23.57
2019-03-21T09:12:47.934Z,25.07
2019-03-21T09:15:14.690Z,22.97
2019-03-21T09:17:41.354Z,23.00
2019-03-21T09:20:08.574Z,26.07
2019-03-21T09:22:35.553Z,23.33
2019-03-21T09:25:06.339Z,24.27
2019-03-21T09:27:32.958Z,23.10
2019-03-21T09:29:59.706Z,22.80
2019-03-21T09:32:26.396Z,25.47
2019-03-21T09:34:53.347Z,25.13
2019-03-21T09:37:20.086Z,25.37
2019-03-21T09:39:46.695Z,24.40
2019-03-21T09:42:13.429Z,24.47
2019-03-21T09:44:40.230Z,24.57
2019-03-21T09:47:06.942Z,24.20
2019-03-21T09:49:33.597Z,27.40
2019-03-21T09:52:00.241Z,25.30
2019-03-21T09:54:27.272Z,26.17
2019-03-21T09:56:54.211Z,27.27
2019-03-21T09:59:20.898Z,27.17
2019-03-21T10:01:48.123Z,27.80
2019-03-21T10:04:14.854Z,28.60
2019-03-21T10:06:41.994Z,28.60
2019-03-21T10:09:08.790Z,27.97
2019-03-21T10:11:35.444Z,25.20
2019-03-21T10:14:02.309Z,26.17
2019-03-21T10:16:29.076Z,27.43
2019-03-21T10:18:55.841Z,28.77
2019-03-21T10:21:22.633Z,26.00
2019-03-21T10:23:49.430Z,25.67
2019-03-21T10:26:16.192Z,27.50
2019-03-21T10:28:43.101Z,25.97
2019-03-21T10:31:09.852Z,31.47
2019-03-21T10:33:36.488Z,24.13
2019-03-21T10:36:03.296Z,31.40
2019-03-21T10:38:30.295Z,28.40
2019-03-21T10:40:57.353Z,30.57
2019-03-21T10:43:37.882Z,31.27
2019-03-21T10:46:04.514Z,27.90
2019-03-21T10:48:31.323Z,25.27
2019-03-21T10:50:58.109Z,27.97
2019-03-21T10:53:24.815Z,26.47
2019-03-21T10:55:51.571Z,28.70
2019-03-21T10:58:20.215Z,26.53
2019-03-21T11:00:47.028Z,26.50
2019-03-21T11:03:13.849Z,26.23
2019-03-21T11:05:40.606Z,24.27
2019-03-21T11:08:07.566Z,23.87
2019-03-21T11:10:34.378Z,24.83
2019-03-21T11:13:01.585Z,23.43
2019-03-21T11:15:28.303Z,21.83
2019-03-21T11:17:55.026Z,22.13
2019-03-21T11:20:31.755Z,27.47
2019-03-21T11:22:58.511Z,21.43
2019-03-21T11:25:25.719Z,23.47
2019-03-21T11:27:52.481Z,21.17
2019-03-21T11:30:27.784Z,21.83
2019-03-21T11:32:54.655Z,22.77
2019-03-21T11:35:21.422Z,22.77
2019-03-21T11:37:48.149Z,22.13
2019-03-21T11:40:14.818Z,18.20
2019-03-21T11:42:41.643Z,17.97
2019-03-21T11:45:08.453Z,19.53
2019-03-21T11:47:41.634Z,16.77
2019-03-21T11:50:06.757Z,17.27
2019-03-21T11:52:33.412Z,19.53
2019-03-21T11:55:00.115Z,20.63
2019-03-21T11:57:26.838Z,20.27
2019-03-21T11:59:53.718Z,19.87
2019-03-21T12:02:27.196Z,23.63
2019-03-21T12:04:49.831Z,24.13
2019-03-21T12:07:16.470Z,24.80
2019-03-21T12:09:43.262Z,25.90
2019-03-21T12:12:09.855Z,23.83
2019-03-21T12:14:36.489Z,25.17
2019-03-21T12:17:03.093Z,22.23
2019-03-21T12:19:29.956Z,22.07
2019-03-21T12:21:56.624Z,20.57
2019-03-21T12:24:23.754Z,23.90
2019-03-21T12:26:55.360Z,23.47
2019-03-21T12:29:22.520Z,23.63
2019-03-21T12:31:49.142Z,23.40
2019-03-21T12:34:16.958Z,24.37
2019-03-21T12:36:44.113Z,22.43
2019-03-21T12:39:12.057Z,25.57
2019-03-21T12:41:38.694Z,24.73
2019-03-21T12:44:05.538Z,22.47
2019-03-21T12:46:32.288Z,25.13
2019-03-21T12:48:58.910Z,25.30
2019-03-21T12:51:25.597Z,24.03
2019-03-21T12:53:52.399Z,23.23
2019-03-21T12:56:19.254Z,25.73
2019-03-21T12:58:45.917Z,25.17
2019-03-21T13:01:12.570Z,22.77
2019-03-21T13:03:39.300Z,21.87
2019-03-21T13:06:06.112Z,23.20
2019-03-21T13:08:34.093Z,23.90
2019-03-21T13:11:01.207Z,23.37
2019-03-21T13:13:27.840Z,22.63
2019-03-21T13:15:54.579Z,21.10
2019-03-21T13:18:21.371Z,22.87
2019-03-21T13:20:48.002Z,19.43
2019-03-21T13:23:14.624Z,23.37
2019-03-21T13:25:41.271Z,19.60
2019-03-21T13:28:08.025Z,19.60
2019-03-21T13:30:35.292Z,18.63
2019-03-21T13:33:02.224Z,20.83
2019-03-21T13:35:32.949Z,20.17
2019-03-21T13:37:57.446Z,18.30
2019-03-21T13:40:24.200Z,19.87
2019-03-21T13:42:50.812Z,50.17
2019-03-21T13:45:17.548Z,19.73
2019-03-21T13:47:44.096Z,21.83
2019-03-21T13:50:10.841Z,16.03
2019-03-21T13:52:37.631Z,15.43
2019-03-21T13:55:06.104Z,15.23
2019-03-21T13:57:32.752Z,16.03
2019-03-21T13:59:59.420Z,14.40
2019-03-21T14:02:26.203Z,14.93
2019-03-21T14:04:53.070Z,13.27
2019-03-21T14:07:19.715Z,14.37
2019-03-21T14:09:46.335Z,17.77
2019-03-21T14:12:12.931Z,16.73
2019-03-21T14:14:39.686Z,16.50
2019-03-21T14:17:06.511Z,17.03
2019-03-21T14:19:33.234Z,14.50
2019-03-21T14:21:59.844Z,12.90
2019-03-21T14:24:26.503Z,13.13
2019-03-21T14:26:53.420Z,13.13
2019-03-21T14:29:20.053Z,15.90
2019-03-21T14:31:46.679Z,18.53
2019-03-21T14:34:13.339Z,13.53
2019-03-21T14:36:39.974Z,11.77
2019-03-21T14:39:09.646Z,15.40
2019-03-21T14:41:36.268Z,14.43
2019-03-21T14:44:03.333Z,13.03
2019-03-21T14:46:30.050Z,13.47
2019-03-21T14:48:56.577Z,12.80
2019-03-21T14:51:23.208Z,11.73
2019-03-21T14:53:49.863Z,12.97
2019-03-21T14:56:16.481Z,12.03
2019-03-21T14:58:43.236Z,12.90
2019-03-21T15:01:10.089Z,14.77
2019-03-21T15:03:36.797Z,16.63
2019-03-21T15:06:03.828Z,18.00
2019-03-21T15:08:30.574Z,14.83
2019-03-21T15:10:57.296Z,16.80
2019-03-21T15:13:24.033Z,19.97
2019-03-21T15:15:50.921Z,17.23
2019-03-21T15:18:17.620Z,17.73
2019-03-21T15:20:44.275Z,18.43
2019-03-21T15:23:11.001Z,18.63
2019-03-21T15:25:37.892Z,17.73
2019-03-21T15:28:04.542Z,19.97
2019-03-21T15:30:31.321Z,21.37
2019-03-21T15:32:58.129Z,22.77
2019-03-21T15:35:24.898Z,22.37
2019-03-21T15:37:51.610Z,23.07
2019-03-21T15:40:18.432Z,22.93
2019-03-21T15:42:45.303Z,21.97
2019-03-21T15:45:22.378Z,21.83
2019-03-21T15:47:43.606Z,21.70
2019-03-21T15:50:16.807Z,22.10
2019-03-21T15:52:43.409Z,22.70
2019-03-21T15:55:10.345Z,22.63
2019-03-21T15:57:37.101Z,24.17
2019-03-21T16:00:07.293Z,22.03
2019-03-21T16:02:34.197Z,22.20
2019-03-21T16:05:00.947Z,21.83
2019-03-21T16:07:27.651Z,22.77
2019-03-21T16:09:54.333Z,23.53
2019-03-21T16:12:21.003Z,22.90
2019-03-21T16:14:49.287Z,22.63
2019-03-21T16:17:16.259Z,21.90
2019-03-21T16:19:43.051Z,20.63
2019-03-21T16:22:09.816Z,24.20
2019-03-21T16:24:36.430Z,24.40
2019-03-21T16:27:03.403Z,22.77
2019-03-21T16:29:30.136Z,21.37
2019-03-21T16:31:56.789Z,23.10
2019-03-21T16:34:23.541Z,21.23
2019-03-21T16:36:50.265Z,22.20
2019-03-21T16:39:17.103Z,21.07
2019-03-21T16:41:43.802Z,22.53
2019-03-21T16:44:10.493Z,22.00
2019-03-21T16:46:37.248Z,21.93
2019-03-21T16:49:04.184Z,22.17
2019-03-21T16:51:30.872Z,22.83
2019-03-21T16:53:57.650Z,23.73
2019-03-21T16:56:24.325Z,22.17
2019-03-21T16:58:52.960Z,21.77
2019-03-21T17:01:19.645Z,23.17
2019-03-21T17:03:46.546Z,23.50
2019-03-21T17:06:13.156Z,25.07
2019-03-21T17:08:39.787Z,22.20
2019-03-21T17:11:06.663Z,24.80
2019-03-21T17:13:33.476Z,22.47
2019-03-21T17:16:00.107Z,23.57
2019-03-21T17:18:26.901Z,23.90
2019-03-21T17:20:53.487Z,24.37
2019-03-21T17:23:21.141Z,24.50
2019-03-21T17:25:47.758Z,24.43
2019-03-21T17:28:14.564Z,24.33
2019-03-21T17:30:41.377Z,24.60
2019-03-21T17:33:08.093Z,24.93
2019-03-21T17:35:34.743Z,23.23
2019-03-21T17:38:01.666Z,23.63
2019-03-21T17:40:28.484Z,26.70
2019-03-21T17:42:55.221Z,24.50
2019-03-21T17:45:22.015Z,25.07
2019-03-21T17:47:48.578Z,25.03
2019-03-21T17:50:16.928Z,27.67
2019-03-21T17:52:43.858Z,26.57
2019-03-21T17:55:11.096Z,25.77
2019-03-21T17:57:38.689Z,26.80
2019-03-21T18:00:25.184Z,25.60
2019-03-21T18:02:51.861Z,26.20
2019-03-21T18:05:18.571Z,27.33
2019-03-21T18:07:45.519Z,27.73
2019-03-21T18:10:32.787Z,28.17
2019-03-21T18:12:59.790Z,30.27
2019-03-21T18:15:26.947Z,30.87
2019-03-21T18:17:54.047Z,31.60
2019-03-21T18:20:20.842Z,28.27
2019-03-21T18:22:47.710Z,25.83
2019-03-21T18:25:14.642Z,28.20
2019-03-21T18:27:43.314Z,26.87
2019-03-21T18:30:10.354Z,27.17
2019-03-21T18:32:37.161Z,24.63
2019-03-21T18:35:05.336Z,27.73
2019-03-21T18:37:32.310Z,29.47
2019-03-21T18:39:59.122Z,29.70
2019-03-21T18:42:25.819Z,28.43
2019-03-21T18:44:52.600Z,26.17
2019-03-21T18:47:19.369Z,28.70
2019-03-21T18:49:46.124Z,29.73
2019-03-21T18:52:12.980Z,29.93
2019-03-21T18:54:39.727Z,27.90
2019-03-21T18:57:06.461Z,28.37
2019-03-21T18:59:33.117Z,31.00
2019-03-21T19:01:59.743Z,30.83
2019-03-21T19:04:26.492Z,30.73
2019-03-21T19:06:53.398Z,38.10
2019-03-21T19:09:20.044Z,41.07
2019-03-21T19:11:48.062Z,42.67
2019-03-21T19:14:14.856Z,46.47
2019-03-21T19:16:41.520Z,49.27
2019-03-21T19:19:08.284Z,49.60
2019-03-21T19:21:35.464Z,55.93
2019-03-21T19:24:02.492Z,55.30
2019-03-21T19:26:30.711Z,54.63
2019-03-21T19:29:00.728Z,56.23
2019-03-21T19:31:29.984Z,57.00
2019-03-21T19:33:56.669Z,48.43
2019-03-21T19:36:23.749Z,47.20
2019-03-21T19:38:50.708Z,47.47
2019-03-21T19:41:17.460Z,47.93
2019-03-21T19:43:44.500Z,45.07
2019-03-21T19:46:11.301Z,44.10
2019-03-21T19:48:49.824Z,43.63
2019-03-21T19:51:07.448Z,41.63
2019-03-21T19:53:34.294Z,40.63
2019-03-21T19:56:08.535Z,36.07
2019-03-21T19:58:29.678Z,34.07
2019-03-21T20:00:57.047Z,34.37
2019-03-21T20:03:24.683Z,35.27
2019-03-21T20:06:00.176Z,35.03
2019-03-21T20:08:20.787Z,33.30
2019-03-21T20:10:48.325Z,34.00
2019-03-21T20:13:15.103Z,35.43
2019-03-21T20:15:42.206Z,35.70
2019-03-21T20:18:09.253Z,33.63
2019-03-21T20:20:36.198Z,37.47
2019-03-21T20:23:03.286Z,34.97
2019-03-21T20:25:41.973Z,34.50
2019-03-21T20:28:00.588Z,33.77
2019-03-21T20:30:27.948Z,33.87
2019-03-21T20:32:56.086Z,35.40
2019-03-21T20:35:22.780Z,33.57
2019-03-21T20:37:50.070Z,35.23
2019-03-21T20:40:18.274Z,36.30
2019-03-21T20:42:46.553Z,35.83
2019-03-21T20:45:16.132Z,38.87
2019-03-21T20:47:43.838Z,35.70
2019-03-21T20:50:11.350Z,35.30
2019-03-21T20:52:38.276Z,36.13
2019-03-21T20:55:06.071Z,37.07
2019-03-21T20:57:32.808Z,38.77
2019-03-21T20:59:59.466Z,37.07
2019-03-21T21:02:26.290Z,36.30
2019-03-21T21:04:53.262Z,37.10
2019-03-21T21:07:20.095Z,37.53
2019-03-21T21:09:46.801Z,37.10
2019-03-21T21:12:13.599Z,41.47
2019-03-21T21:14:40.543Z,40.33
2019-03-21T21:17:07.206Z,40.37
2019-03-21T21:19:33.893Z,43.20
2019-03-21T21:22:00.838Z,39.87
2019-03-21T21:24:29.462Z,41.63
2019-03-21T21:26:56.903Z,40.97
2019-03-21T21:29:23.618Z,43.60
2019-03-21T21:31:50.870Z,44.20
2019-03-21T21:34:17.910Z,45.63
2019-03-21T21:36:44.632Z,44.60
2019-03-21T21:39:11.426Z,47.70
2019-03-21T21:41:38.292Z,47.63
2019-03-21T21:44:05.110Z,48.53
2019-03-21T21:46:31.989Z,48.93
2019-03-21T21:49:01.526Z,52.83
2019-03-21T21:51:29.316Z,50.60
2019-03-21T21:53:55.988Z,50.93
2019-03-21T21:56:22.733Z,49.00
2019-03-21T21:58:49.992Z,52.37
2019-03-21T22:01:16.714Z,53.23
2019-03-21T22:03:43.385Z,51.90
2019-03-21T22:06:10.043Z,51.97
2019-03-21T22:08:38.108Z,55.20
2019-03-21T22:11:06.786Z,51.80
2019-03-21T22:13:34.058Z,53.23
2019-03-21T22:16:00.676Z,55.07
2019-03-21T22:18:27.216Z,54.23
2019-03-21T22:20:54.206Z,58.60
2019-03-21T22:23:21.010Z,55.00
2019-03-21T22:25:47.792Z,57.30
2019-03-21T22:28:14.446Z,55.37
2019-03-21T22:30:41.532Z,57.07
2019-03-21T22:33:08.300Z,59.10
2019-03-21T22:35:34.951Z,60.47
2019-03-21T22:38:02.049Z,60.47
2019-03-21T22:40:28.760Z,58.87
2019-03-21T22:42:55.838Z,63.60
2019-03-21T22:45:22.558Z,61.63
2019-03-21T22:47:50.783Z,63.73
2019-03-21T22:50:18.141Z,64.03
2019-03-21T22:52:45.352Z,58.03
2019-03-21T22:55:14.550Z,60.93
2019-03-21T22:57:41.366Z,62.33
2019-03-21T23:00:14.856Z,63.63
2019-03-21T23:02:43.967Z,64.77
2019-03-21T23:05:11.239Z,59.70
2019-03-21T23:07:38.074Z,60.10
2019-03-21T23:10:08.489Z,61.23
2019-03-21T23:12:36.734Z,61.83
2019-03-21T23:15:06.704Z,60.60
2019-03-21T23:17:35.421Z,60.77
2019-03-21T23:20:04.643Z,64.53
2019-03-21T23:22:31.410Z,65.47
2019-03-21T23:24:58.232Z,62.40
2019-03-21T23:27:24.974Z,59.83
2019-03-21T23:29:51.618Z,64.70
2019-03-21T23:32:18.480Z,64.30
2019-03-21T23:34:45.228Z,67.07
2019-03-21T23:37:12.065Z,64.17
2019-03-21T23:39:38.705Z,67.30
2019-03-21T23:42:05.432Z,67.47
2019-03-21T23:44:32.205Z,65.93
2019-03-21T23:46:58.926Z,66.47
2019-03-21T23:49:26.800Z,68.23
2019-03-21T23:51:53.661Z,68.87
2019-03-21T23:54:20.203Z,68.23
2019-03-21T23:56:46.886Z,66.00
2019-03-21T23:59:13.630Z,67.30
